Time;durP1;ratioP1;P1;durP2;ratioP2;P2;SDS_P1;SDS_P2;PMS_P1;PMS_P2;Temp;Humidity;BMP_temperature;BMP_pressure;BME280_temperature;BME280_humidity;BME280_pressure;Samples;Min_cycle;Max_cycle;Signal;HPM_P1;HPM_P2
2021/09/03 04:02:33;;;;;;;8.13;5.50;;;7.80;96.30;;;;;;5026659;23;20517;-82
2021/09/03 04:04:58;;;;;;;11.97;6.53;;;7.80;96.30;;;;;;4984130;28;20417;-82
2021/09/03 04:07:24;;;;;;;11.83;5.50;;;7.70;96.30;;;;;;4979564;28;20649;-82
2021/09/03 04:09:49;;;;;;;7.07;5.00;;;7.80;96.30;;;;;;4996270;28;20180;-82
2021/09/03 04:12:15;;;;;;;9.97;6.73;;;7.80;96.30;;;;;;4995239;28;20553;-82
2021/09/03 04:14:41;;;;;;;20.20;6.10;;;7.80;96.30;;;;;;4999596;28;20177;-82
2021/09/03 04:17:06;;;;;;;10.13;8.43;;;7.70;96.30;;;;;;5001371;28;20672;-81
2021/09/03 04:19:32;;;;;;;10.10;8.43;;;7.60;96.30;;;;;;4995553;28;20186;-82
2021/09/03 04:21:57;;;;;;;13.80;12.00;;;7.50;96.30;;;;;;4977055;28;20205;-82
2021/09/03 04:24:23;;;;;;;11.60;8.80;;;7.50;96.30;;;;;;4978029;28;20181;-81
2021/09/03 04:26:48;;;;;;;7.63;6.63;;;7.50;96.30;;;;;;4977663;28;20261;-82
2021/09/03 04:29:14;;;;;;;11.87;7.43;;;7.50;96.30;;;;;;4977634;28;20637;-82
2021/09/03 04:31:39;;;;;;;10.77;6.10;;;7.50;96.30;;;;;;4977371;28;20284;-82
2021/09/03 04:34:05;;;;;;;7.70;6.57;;;7.50;96.30;;;;;;4993818;28;20177;-82
2021/09/03 04:36:30;;;;;;;9.83;5.13;;;7.50;96.30;;;;;;4998248;28;20184;-82
2021/09/03 04:38:55;;;;;;;7.80;6.00;;;7.60;96.30;;;;;;4997006;28;20739;-82
2021/09/03 04:41:21;;;;;;;11.57;6.63;;;7.70;96.30;;;;;;4995645;28;20251;-82
2021/09/03 04:43:46;;;;;;;10.10;6.97;;;7.70;96.30;;;;;;5014229;28;20658;-81
2021/09/03 04:46:12;;;;;;;9.33;5.67;;;7.80;96.30;;;;;;4996779;28;20169;-81
2021/09/03 04:48:37;;;;;;;9.73;6.37;;;7.90;96.30;;;;;;4996591;28;20176;-82
2021/09/03 04:51:03;;;;;;;6.83;6.13;;;8.00;96.30;;;;;;5013597;28;20193;-82
2021/09/03 04:53:28;;;;;;;8.33;6.33;;;8.00;96.30;;;;;;5014063;28;20681;-82
2021/09/03 04:55:55;;;;;;;10.23;6.07;;;8.10;96.30;;;;;;5014011;28;20176;-82
2021/09/03 04:58:21;;;;;;;8.57;6.17;;;8.20;96.30;;;;;;5014006;28;20177;-82
2021/09/03 05:00:46;;;;;;;7.43;5.67;;;8.30;96.30;;;;;;5013675;28;20447;-82
2021/09/03 05:03:12;;;;;;;6.27;5.67;;;8.40;96.30;;;;;;4995008;28;20173;-82
2021/09/03 05:05:37;;;;;;;7.13;5.70;;;8.50;96.30;;;;;;5014139;28;20188;-82
2021/09/03 05:08:05;;;;;;;8.10;6.47;;;8.50;96.30;;;;;;4998053;28;20179;-82
2021/09/03 05:10:31;;;;;;;6.60;5.90;;;8.50;96.30;;;;;;4996772;28;20197;-81
2021/09/03 05:12:57;;;;;;;8.20;6.23;;;8.60;96.30;;;;;;4996232;28;20420;-82
2021/09/03 05:15:34;;;;;;;12.07;6.27;;;8.70;96.30;;;;;;5014045;28;20177;-81
2021/09/03 05:18:00;;;;;;;6.87;6.17;;;9.00;96.30;;;;;;5014057;28;20256;-81
2021/09/03 05:20:26;;;;;;;10.87;6.60;;;9.60;96.30;;;;;;5015168;28;20458;-80
2021/09/03 05:22:51;;;;;;;11.90;6.90;;;10.50;96.30;;;;;;4996675;28;20209;-82
2021/09/03 05:25:17;;;;;;;7.37;6.57;;;11.70;96.30;;;;;;5015402;28;20188;-82
2021/09/03 05:27:43;;;;;;;7.47;6.10;;;12.60;96.30;;;;;;5016325;28;20176;-82
2021/09/03 05:30:09;;;;;;;7.00;5.20;;;13.50;96.30;;;;;;5015583;28;20769;-82
2021/09/03 05:32:36;;;;;;;6.30;4.90;;;14.20;96.30;;;;;;5016394;28;20180;-81
2021/09/03 05:35:05;;;;;;;8.43;4.40;;;14.70;96.30;;;;;;4999004;28;20423;-82
2021/09/03 05:37:31;;;;;;;6.93;4.70;;;15.50;96.30;;;;;;5016121;28;20441;-83
2021/09/03 05:39:58;;;;;;;11.30;5.67;;;16.10;96.30;;;;;;5015404;28;20419;-82
2021/09/03 05:42:24;;;;;;;10.67;5.13;;;16.70;96.30;;;;;;5015782;28;20684;-82
2021/09/03 05:44:49;;;;;;;5.10;4.60;;;17.10;96.30;;;;;;5013966;28;20494;-84
2021/09/03 05:47:15;;;;;;;8.07;4.20;;;16.90;96.30;;;;;;5004149;28;20177;-82
2021/09/03 05:49:40;;;;;;;10.50;4.10;;;17.60;96.30;;;;;;5006253;28;20263;-83
2021/09/03 05:52:06;;;;;;;5.23;3.90;;;18.40;96.30;;;;;;4991603;28;20207;-84
2021/09/03 05:54:32;;;;;;;9.33;4.90;;;18.90;96.30;;;;;;4995425;28;20714;-83
2021/09/03 05:56:58;;;;;;;11.77;5.67;;;18.90;96.30;;;;;;5012842;28;20231;-82
2021/09/03 05:59:23;;;;;;;23.27;7.30;;;19.10;96.30;;;;;;5011240;28;20181;-82
2021/09/03 06:01:49;;;;;;;10.00;5.03;;;19.20;96.10;;;;;;4993721;28;20835;-83
2021/09/03 06:04:14;;;;;;;4.90;4.10;;;19.40;95.80;;;;;;5029717;28;20183;-81
2021/09/03 06:06:40;;;;;;;8.50;3.90;;;19.30;96.20;;;;;;5014576;28;20258;-84
2021/09/03 06:09:05;;;;;;;5.73;3.93;;;19.80;94.50;;;;;;5004289;28;20185;-84
2021/09/03 06:11:31;;;;;;;6.43;3.80;;;20.10;93.40;;;;;;4998000;28;20284;-79
2021/09/03 06:13:57;;;;;;;7.20;4.80;;;20.10;94.70;;;;;;5002975;28;20650;-78
2021/09/03 06:16:23;;;;;;;5.67;4.20;;;20.30;93.80;;;;;;5012920;28;20173;-78
2021/09/03 06:18:49;;;;;;;6.47;4.70;;;20.60;92.50;;;;;;5012775;28;20207;-79
2021/09/03 06:21:15;;;;;;;5.57;4.10;;;20.50;92.90;;;;;;5012298;28;20491;-79
2021/09/03 06:23:41;;;;;;;8.80;4.63;;;21.20;90.90;;;;;;4995897;28;20184;-81
2021/09/03 06:26:07;;;;;;;8.20;4.43;;;21.50;89.60;;;;;;5004340;28;20428;-80
2021/09/03 06:28:32;;;;;;;9.00;5.93;;;22.00;88.40;;;;;;4992833;28;20276;-78
2021/09/03 06:30:58;;;;;;;7.33;3.77;;;21.70;89.30;;;;;;4992324;28;20193;-78
2021/09/03 06:33:23;;;;;;;4.70;4.20;;;21.90;88.50;;;;;;4993263;28;20177;-82
2021/09/03 06:35:49;;;;;;;8.83;3.90;;;21.90;88.50;;;;;;4976531;28;20185;-83
2021/09/03 06:38:14;;;;;;;5.63;3.73;;;21.70;89.80;;;;;;4976532;28;20200;-83
2021/09/03 06:40:40;;;;;;;5.07;3.80;;;22.20;88.50;;;;;;4994897;28;20264;-82
2021/09/03 06:43:05;;;;;;;4.83;4.33;;;22.70;87.80;;;;;;5009898;28;20542;-83
2021/09/03 06:45:31;;;;;;;5.83;4.70;;;23.30;85.80;;;;;;5006488;28;20255;-82
2021/09/03 06:47:56;;;;;;;4.20;3.77;;;23.00;87.20;;;;;;4994326;28;20231;-82
2021/09/03 06:50:22;;;;;;;4.90;4.50;;;24.10;83.00;;;;;;5000752;28;20188;-82
2021/09/03 06:52:48;;;;;;;3.97;3.50;;;23.70;84.70;;;;;;4993851;28;20311;-82
2021/09/03 06:55:14;;;;;;;4.67;4.07;;;23.90;83.50;;;;;;4994309;28;20536;-82
2021/09/03 06:57:39;;;;;;;9.53;4.10;;;24.30;82.80;;;;;;4993986;28;20416;-82
2021/09/03 07:00:06;;;;;;;6.37;3.83;;;24.60;84.90;;;;;;4976826;28;20184;-82
2021/09/03 07:02:32;;;;;;;4.03;3.63;;;25.10;79.90;;;;;;4994357;28;20237;-81
2021/09/03 07:04:58;;;;;;;4.07;3.70;;;24.80;82.10;;;;;;4994552;28;20412;-80
2021/09/03 07:07:23;;;;;;;5.63;3.97;;;25.70;80.20;;;;;;4994611;28;20228;-83
2021/09/03 07:09:49;;;;;;;6.30;4.23;;;25.90;79.20;;;;;;4999107;28;20195;-82
2021/09/03 07:12:14;;;;;;;6.10;3.90;;;25.70;80.50;;;;;;5012344;28;20223;-82
2021/09/03 07:14:40;;;;;;;3.73;3.43;;;26.10;79.50;;;;;;4996228;28;20251;-82
2021/09/03 07:17:06;;;;;;;4.63;4.10;;;26.00;79.40;;;;;;5014245;28;20227;-80
2021/09/03 07:19:33;;;;;;;5.80;3.60;;;27.40;75.60;;;;;;5014011;28;20396;-82
2021/09/03 07:21:59;;;;;;;4.10;3.63;;;27.00;76.10;;;;;;5014618;28;20683;-81
2021/09/03 07:24:24;;;;;;;3.80;3.50;;;26.80;76.90;;;;;;4995880;28;20411;-83
2021/09/03 07:26:50;;;;;;;4.30;3.73;;;26.90;75.90;;;;;;5016481;28;20180;-82
2021/09/03 07:29:15;;;;;;;3.97;3.20;;;26.30;78.20;;;;;;4998725;28;20172;-82
2021/09/03 07:31:41;;;;;;;4.40;3.60;;;27.20;77.00;;;;;;5016023;28;20683;-80
2021/09/03 07:34:07;;;;;;;5.60;3.60;;;25.50;80.50;;;;;;5000030;28;20212;-82
2021/09/03 07:36:32;;;;;;;3.60;3.20;;;26.60;78.20;;;;;;5001208;28;20572;-81
2021/09/03 07:38:58;;;;;;;3.40;3.10;;;26.40;79.30;;;;;;5018469;28;20188;-79
2021/09/03 07:41:23;;;;;;;8.23;3.90;;;27.40;77.20;;;;;;5017556;28;20640;-80
2021/09/03 07:43:49;;;;;;;4.77;3.80;;;25.40;80.40;;;;;;5019452;28;20169;-81
2021/09/03 07:46:15;;;;;;;5.30;4.20;;;26.40;79.10;;;;;;5001284;28;20182;-81
2021/09/03 07:48:40;;;;;;;3.93;3.40;;;26.30;78.80;;;;;;5019094;28;20198;-80
2021/09/03 07:51:06;;;;;;;4.60;3.70;;;26.50;79.00;;;;;;4999328;28;20560;-82
2021/09/03 07:53:31;;;;;;;4.90;3.70;;;26.60;79.70;;;;;;5000076;28;20183;-81
2021/09/03 07:55:57;;;;;;;5.70;4.37;;;27.20;78.50;;;;;;5002054;28;20194;-81
2021/09/03 07:58:23;;;;;;;8.63;4.53;;;27.40;79.60;;;;;;5002420;28;20207;-81
2021/09/03 08:00:48;;;;;;;8.40;4.30;;;28.10;77.20;;;;;;5021557;28;20586;-82
2021/09/03 08:03:14;;;;;;;5.60;3.70;;;28.60;77.00;;;;;;5003479;28;20588;-83
2021/09/03 08:05:39;;;;;;;3.60;3.23;;;28.20;73.30;;;;;;5001063;28;20589;-82
2021/09/03 08:08:05;;;;;;;4.40;3.73;;;28.90;75.80;;;;;;5017562;28;20238;-83
2021/09/03 08:10:32;;;;;;;6.70;4.00;;;29.60;71.30;;;;;;5016133;28;20258;-81
2021/09/03 08:13:03;;;;;;;3.75;3.45;;;29.60;72.60;;;;;;4998436;28;20183;-82
2021/09/03 08:15:29;;;;;;;6.53;4.10;;;30.10;70.00;;;;;;4996185;28;20180;-82
2021/09/03 08:17:55;;;;;;;4.25;3.85;;;30.70;69.40;;;;;;5014846;28;20512;-83
2021/09/03 08:20:21;;;;;;;4.05;3.65;;;30.50;67.60;;;;;;5017613;28;20238;-78
2021/09/03 08:22:50;;;;;;;8.50;4.25;;;30.80;66.10;;;;;;5017029;28;20813;-80
2021/09/03 08:25:16;;;;;;;4.63;3.95;;;30.70;66.50;;;;;;5035472;28;20171;-80
2021/09/03 08:27:41;;;;;;;3.72;3.22;;;30.30;70.30;;;;;;5018379;28;20579;-79
2021/09/03 08:30:08;;;;;;;4.75;3.33;;;30.50;68.40;;;;;;5030382;28;20219;-82
2021/09/03 08:32:33;;;;;;;7.57;4.05;;;30.00;65.30;;;;;;5016804;28;20192;-81
2021/09/03 08:34:59;;;;;;;5.38;4.13;;;30.00;66.80;;;;;;5000508;28;20188;-86
2021/09/03 08:37:25;;;;;;;5.13;3.70;;;30.00;66.90;;;;;;4996654;28;20640;-82
2021/09/03 08:39:50;;;;;;;5.65;3.80;;;29.80;67.50;;;;;;4997460;28;20192;-82
2021/09/03 08:42:16;;;;;;;4.60;3.77;;;29.60;69.40;;;;;;5015748;28;20192;-80
2021/09/03 08:44:43;;;;;;;4.22;3.83;;;30.00;69.30;;;;;;4998822;28;20181;-82
2021/09/03 08:47:10;;;;;;;6.83;3.50;;;30.70;69.40;;;;;;5014774;28;20620;-82
2021/09/03 08:49:36;;;;;;;4.70;3.80;;;30.60;68.40;;;;;;4997209;28;20431;-80
2021/09/03 08:52:01;;;;;;;9.97;3.83;;;30.20;69.10;;;;;;4998460;28;20204;-82
2021/09/03 08:54:27;;;;;;;4.10;3.70;;;30.50;67.10;;;;;;5015193;28;20418;-80
2021/09/03 08:56:53;;;;;;;4.30;4.00;;;30.50;67.60;;;;;;4980231;28;20637;-79
2021/09/03 08:59:18;;;;;;;4.00;3.60;;;30.20;68.90;;;;;;4995883;28;20236;-82
2021/09/03 09:02:06;;;;;;;4.27;3.87;;;29.90;67.70;;;;;;4995201;28;20213;-79
2021/09/03 09:04:37;;;;;;;6.70;4.20;;;29.80;72.00;;;;;;4999782;28;20189;-80
2021/09/03 09:07:03;;;;;;;10.13;4.07;;;29.60;70.40;;;;;;4979596;28;20409;-80
2021/09/03 09:09:34;;;;;;;5.10;3.60;;;29.60;72.70;;;;;;4996618;28;20401;-81
2021/09/03 09:12:25;;;;;;;5.80;4.13;;;30.00;68.60;;;;;;4978745;28;20831;-82
2021/09/03 09:15:03;;;;;;;4.67;3.73;;;30.30;72.80;;;;;;4978564;28;20422;-80
2021/09/03 09:17:35;;;;;;;5.17;4.20;;;29.60;71.70;;;;;;4978653;28;20424;-81
2021/09/03 09:20:07;;;;;;;5.63;4.00;;;29.60;71.10;;;;;;4997011;28;20409;-81
2021/09/03 09:22:54;;;;;;;4.80;3.80;;;29.70;70.40;;;;;;4995909;28;20471;-80
2021/09/03 09:25:31;;;;;;;4.20;3.60;;;29.70;72.20;;;;;;4996486;28;20908;-86
2021/09/03 09:28:21;;;;;;;5.40;4.43;;;29.80;74.00;;;;;;4977405;28;20423;-82
2021/09/03 09:30:48;;;;;;;4.40;4.00;;;29.70;71.00;;;;;;4994129;28;20443;-86
2021/09/03 09:33:18;;;;;;;7.43;4.63;;;29.80;74.30;;;;;;4982247;28;20444;-84
2021/09/03 09:35:45;;;;;;;4.20;3.70;;;29.70;68.70;;;;;;5000873;28;20498;-85
2021/09/03 09:38:11;;;;;;;5.87;3.50;;;29.60;72.50;;;;;;4997466;28;20807;-81
2021/09/03 09:40:49;;;;;;;9.50;3.43;;;29.30;68.20;;;;;;5002097;28;20439;-85
2021/09/03 09:43:37;;;;;;;3.80;3.40;;;28.40;72.40;;;;;;4995645;28;20561;-84
2021/09/03 09:46:17;;;;;;;4.90;3.37;;;28.20;74.40;;;;;;5013166;28;20950;-86
2021/09/03 09:48:48;;;;;;;4.80;4.23;;;27.40;74.00;;;;;;5013394;28;20908;-85
2021/09/03 09:51:21;;;;;;;4.20;3.77;;;27.60;74.30;;;;;;4995349;28;20438;-85
2021/09/03 09:54:27;;;;;;;7.77;3.87;;;27.10;73.70;;;;;;5013710;28;20419;-85
2021/09/03 09:56:54;;;;;;;11.80;4.60;;;27.40;78.30;;;;;;5002709;28;20567;-85
2021/09/03 09:59:22;;;;;;;4.90;4.03;;;27.60;79.70;;;;;;5013652;28;20421;-85
2021/09/03 10:01:52;;;;;;;5.03;3.90;;;27.10;73.50;;;;;;5014454;28;20610;-85
2021/09/03 10:04:20;;;;;;;5.47;4.47;;;26.60;79.70;;;;;;4999011;28;20423;-85
2021/09/03 10:06:48;;;;;;;5.27;3.70;;;27.30;77.20;;;;;;5021979;28;20411;-85
2021/09/03 10:09:16;;;;;;;5.87;4.00;;;27.40;75.00;;;;;;5013885;28;20443;-85
2021/09/03 10:11:43;;;;;;;7.03;4.27;;;27.20;80.20;;;;;;5014741;28;20457;-83
2021/09/03 10:14:11;;;;;;;4.83;4.10;;;27.70;77.80;;;;;;5016627;28;20412;-82
2021/09/03 10:16:37;;;;;;;4.90;3.93;;;27.70;77.30;;;;;;4998245;28;20427;-81
2021/09/03 10:19:05;;;;;;;4.93;3.63;;;27.90;78.60;;;;;;5001762;28;20525;-78
2021/09/03 13:09:45;;;;;;;5.43;4.13;;;26.10;79.40;;;;;;5778586;23;20494;-76
2021/09/03 15:07:42;;;;;;;4.80;4.40;;;24.60;82.70;;;;;;5203849;23;20496;-79
2021/09/03 15:10:08;;;;;;;4.63;4.27;;;24.90;84.10;;;;;;4973471;28;20480;-79
2021/09/03 15:12:34;;;;;;;4.93;4.40;;;24.80;81.20;;;;;;4986823;28;20854;-79
2021/09/03 15:15:00;;;;;;;4.80;4.30;;;24.80;83.50;;;;;;5011361;28;20435;-80
2021/09/03 15:17:26;;;;;;;4.33;3.93;;;24.90;83.60;;;;;;5012389;28;20503;-79
2021/09/03 15:19:51;;;;;;;4.53;4.13;;;25.20;82.20;;;;;;5014805;28;20847;-79
2021/09/03 15:22:17;;;;;;;5.00;4.50;;;25.10;80.00;;;;;;5011615;28;20203;-80
2021/09/03 15:24:42;;;;;;;9.97;5.53;;;24.90;80.80;;;;;;5012137;28;20173;-79
2021/09/03 15:27:11;;;;;;;4.10;3.80;;;24.70;83.10;;;;;;5027545;28;20176;-78
2021/09/03 15:29:37;;;;;;;8.20;4.63;;;24.50;83.80;;;;;;5011958;28;20177;-78
2021/09/03 15:32:03;;;;;;;7.27;4.10;;;24.40;82.60;;;;;;5010839;28;20462;-78
2021/09/03 15:34:28;;;;;;;8.63;4.23;;;24.20;83.50;;;;;;5011547;28;20458;-78
2021/09/03 15:36:59;;;;;;;6.87;4.63;;;23.90;85.10;;;;;;5011615;28;20189;-79
2021/09/03 15:39:25;;;;;;;5.80;4.10;;;23.60;85.10;;;;;;5011577;28;20227;-78
2021/09/03 15:41:51;;;;;;;6.60;3.93;;;23.80;86.40;;;;;;5010731;28;20467;-81
2021/09/03 15:44:16;;;;;;;7.40;4.83;;;23.60;86.60;;;;;;5014557;28;20233;-78
2021/09/03 15:46:42;;;;;;;6.83;5.00;;;23.60;86.10;;;;;;4998426;28;20189;-78
2021/09/03 15:49:07;;;;;;;5.80;5.00;;;23.40;87.80;;;;;;5016911;28;20652;-78
2021/09/03 15:51:33;;;;;;;5.27;4.77;;;23.30;88.30;;;;;;5016422;28;20461;-77
2021/09/03 15:53:58;;;;;;;10.60;4.67;;;23.20;89.60;;;;;;5016265;28;20200;-80
2021/09/03 15:56:24;;;;;;;5.43;4.70;;;23.20;87.50;;;;;;5023786;28;20664;-78
2021/09/03 15:58:50;;;;;;;8.83;4.67;;;23.50;87.30;;;;;;5021668;28;20264;-78
2021/09/03 16:01:15;;;;;;;5.97;4.87;;;23.40;87.40;;;;;;5017125;28;20203;-78
2021/09/03 16:03:43;;;;;;;5.47;4.97;;;23.30;86.50;;;;;;5016460;28;20272;-78
2021/09/03 16:06:14;;;;;;;5.80;5.23;;;23.30;87.40;;;;;;5001054;28;20216;-78
2021/09/03 16:08:44;;;;;;;5.50;4.93;;;23.10;90.30;;;;;;5000193;28;20416;-77
2021/09/03 16:11:10;;;;;;;7.37;5.07;;;22.90;88.60;;;;;;5015470;28;20440;-78
2021/09/03 16:13:36;;;;;;;6.50;4.50;;;23.00;88.00;;;;;;5017739;28;20759;-78
2021/09/03 16:16:02;;;;;;;9.07;4.73;;;22.90;88.40;;;;;;5018246;28;20965;-77
2021/09/03 16:18:29;;;;;;;5.10;4.70;;;22.90;87.90;;;;;;4999104;28;20428;-79
2021/09/03 16:20:55;;;;;;;6.03;5.37;;;22.80;87.20;;;;;;5016733;28;20436;-81
2021/09/03 16:23:20;;;;;;;5.93;4.77;;;22.50;88.60;;;;;;5014718;28;20839;-79
2021/09/03 16:25:46;;;;;;;7.27;4.70;;;22.50;90.40;;;;;;5016939;28;20266;-79
2021/09/03 16:28:11;;;;;;;5.83;5.23;;;22.50;89.90;;;;;;5014332;28;20172;-79
2021/09/03 16:30:37;;;;;;;5.87;5.00;;;22.40;90.10;;;;;;5014420;28;20197;-79
2021/09/03 16:33:04;;;;;;;6.37;5.33;;;22.30;91.40;;;;;;5013810;28;20207;-79
2021/09/03 16:35:30;;;;;;;7.10;4.87;;;22.20;91.40;;;;;;5010934;28;20213;-79
2021/09/03 16:37:56;;;;;;;6.27;5.70;;;22.20;90.90;;;;;;5009025;28;20412;-79
2021/09/03 16:40:22;;;;;;;6.00;5.03;;;22.00;91.40;;;;;;5012628;28;20916;-80
2021/09/03 16:42:48;;;;;;;6.50;5.20;;;22.00;91.90;;;;;;5012192;28;20474;-79
2021/09/03 16:45:13;;;;;;;5.50;4.67;;;21.90;92.70;;;;;;5005331;28;20450;-81
2021/09/03 16:47:42;;;;;;;6.77;5.47;;;21.80;94.80;;;;;;5014140;28;20181;-81
2021/09/03 16:50:08;;;;;;;6.37;5.37;;;21.50;96.30;;;;;;5016737;28;20177;-80
2021/09/03 16:52:34;;;;;;;5.90;5.00;;;21.30;96.30;;;;;;5015071;28;20446;-79
2021/09/03 16:55:00;;;;;;;6.80;4.80;;;21.20;96.20;;;;;;5013096;28;20805;-79
2021/09/03 16:57:26;;;;;;;5.03;4.53;;;21.00;96.30;;;;;;5002458;28;20185;-80
2021/09/03 16:59:51;;;;;;;9.13;4.97;;;20.70;96.30;;;;;;5008145;28;20196;-78
2021/09/03 17:02:17;;;;;;;10.37;4.90;;;20.40;96.30;;;;;;4999015;28;20209;-81
2021/09/03 17:04:42;;;;;;;5.00;4.50;;;20.20;96.30;;;;;;5001068;28;20180;-81
2021/09/03 17:07:09;;;;;;;9.73;5.00;;;19.90;96.30;;;;;;5014490;28;20571;-81
2021/09/03 17:09:35;;;;;;;11.33;4.83;;;19.60;96.30;;;;;;4999277;28;20224;-80
2021/09/03 17:12:00;;;;;;;8.23;4.30;;;19.20;96.30;;;;;;5011211;28;20444;-80
2021/09/03 17:14:26;;;;;;;6.30;4.57;;;18.90;96.30;;;;;;5010446;28;20467;-81
2021/09/03 17:16:52;;;;;;;6.23;4.57;;;18.70;96.30;;;;;;4985245;28;20178;-81
2021/09/03 17:19:18;;;;;;;6.23;4.70;;;18.50;96.30;;;;;;4985007;28;20185;-81
2021/09/03 17:21:43;;;;;;;6.93;4.60;;;18.20;96.30;;;;;;5000662;28;20216;-81
2021/09/03 17:24:09;;;;;;;6.13;5.07;;;17.90;96.30;;;;;;4987596;28;20172;-82
2021/09/03 17:26:35;;;;;;;5.60;4.73;;;17.70;96.30;;;;;;5026175;28;20411;-80
2021/09/03 17:29:01;;;;;;;7.07;5.27;;;17.50;96.30;;;;;;5040075;28;20171;-80
2021/09/03 17:31:27;;;;;;;7.40;5.10;;;17.30;96.30;;;;;;5038737;28;20254;-80
2021/09/03 17:33:52;;;;;;;7.67;4.93;;;17.10;96.30;;;;;;5022301;28;20615;-81
2021/09/03 17:36:18;;;;;;;6.30;5.30;;;16.90;96.30;;;;;;5015269;28;20188;-80
2021/09/03 17:38:43;;;;;;;8.43;5.47;;;16.70;96.30;;;;;;5001587;28;20651;-81
2021/09/03 17:41:09;;;;;;;8.50;6.30;;;16.60;96.30;;;;;;5017737;28;20243;-80
2021/09/03 17:43:38;;;;;;;15.83;5.23;;;16.40;96.30;;;;;;5016518;28;20185;-80
2021/09/03 17:46:04;;;;;;;5.40;4.77;;;16.20;96.30;;;;;;5016206;28;20181;-80
2021/09/03 17:48:30;;;;;;;13.40;7.87;;;16.10;96.30;;;;;;5016324;28;20988;-80
2021/09/03 17:50:56;;;;;;;13.70;6.77;;;16.00;96.30;;;;;;5015758;28;20443;-78
2021/09/03 17:53:21;;;;;;;15.00;7.50;;;15.90;96.30;;;;;;5012941;28;20412;-78
2021/09/03 17:55:47;;;;;;;9.07;7.43;;;15.80;96.30;;;;;;4995365;28;20652;-77
2021/09/03 17:58:13;;;;;;;9.30;6.03;;;15.70;96.30;;;;;;5012366;28;20575;-79
2021/09/03 18:00:40;;;;;;;6.90;5.30;;;15.60;96.30;;;;;;4995541;28;20201;-78
2021/09/03 18:03:06;;;;;;;7.30;5.80;;;15.50;96.30;;;;;;5012351;28;20448;-78
2021/09/03 18:05:31;;;;;;;5.40;4.83;;;15.50;96.30;;;;;;5013212;28;20408;-78
2021/09/03 18:07:57;;;;;;;7.50;5.20;;;15.40;96.30;;;;;;5013194;28;20188;-78
2021/09/03 18:10:22;;;;;;;14.87;5.90;;;15.30;96.30;;;;;;5011302;28;20303;-78
2021/09/03 18:12:48;;;;;;;8.30;6.17;;;15.20;96.30;;;;;;5011947;28;20180;-78
2021/09/03 18:15:14;;;;;;;8.20;5.17;;;15.10;96.30;;;;;;4995435;28;20177;-79
2021/09/03 18:17:39;;;;;;;7.00;5.90;;;15.00;96.30;;;;;;5012606;28;20201;-77
2021/09/03 18:20:06;;;;;;;7.10;5.60;;;15.00;96.30;;;;;;5013580;28;20173;-78
2021/09/03 18:22:32;;;;;;;6.33;5.73;;;15.00;96.30;;;;;;5012068;28;20617;-79
2021/09/03 18:24:58;;;;;;;6.77;6.07;;;14.90;96.30;;;;;;5013544;28;20408;-79
2021/09/03 18:27:23;;;;;;;6.03;4.80;;;14.90;96.30;;;;;;5015795;28;20404;-79
2021/09/03 18:29:49;;;;;;;6.23;5.37;;;14.90;96.30;;;;;;5014233;28;20165;-79
2021/09/03 18:32:14;;;;;;;9.10;6.70;;;14.80;96.30;;;;;;5011879;28;20225;-79
2021/09/03 18:34:41;;;;;;;8.13;6.47;;;14.80;96.30;;;;;;4991699;28;20659;-79
2021/09/03 18:37:06;;;;;;;6.93;6.20;;;14.70;96.30;;;;;;5013316;28;20203;-79
2021/09/03 18:39:33;;;;;;;6.53;5.40;;;14.70;96.30;;;;;;5013104;28;20878;-80
2021/09/03 18:41:59;;;;;;;7.27;5.67;;;14.60;96.30;;;;;;4993368;28;20689;-80
2021/09/03 18:44:25;;;;;;;7.90;5.53;;;14.40;96.30;;;;;;4994435;28;20434;-80
2021/09/03 18:46:50;;;;;;;11.93;6.23;;;14.20;96.30;;;;;;5013705;28;21061;-80
2021/09/03 18:49:16;;;;;;;7.97;5.97;;;14.10;96.30;;;;;;4995389;28;20173;-80
2021/09/03 18:51:41;;;;;;;6.13;5.17;;;14.00;96.30;;;;;;4995611;28;20243;-80
2021/09/03 18:54:07;;;;;;;10.37;5.67;;;13.90;96.30;;;;;;5013852;28;20227;-79
2021/09/03 18:56:33;;;;;;;8.50;5.73;;;13.70;96.30;;;;;;4995748;28;20577;-80
2021/09/03 18:58:59;;;;;;;6.63;5.10;;;13.60;96.30;;;;;;4995770;28;20260;-79
2021/09/03 19:01:25;;;;;;;8.47;6.20;;;13.60;96.30;;;;;;5012512;28;20208;-80
2021/09/03 19:03:51;;;;;;;6.30;5.70;;;13.50;96.30;;;;;;4995646;28;20478;-80
2021/09/03 19:06:17;;;;;;;7.10;5.80;;;13.40;96.30;;;;;;5013948;28;20532;-79
2021/09/03 19:08:43;;;;;;;11.80;7.30;;;13.40;96.30;;;;;;5014367;28;20918;-79
2021/09/03 19:11:09;;;;;;;6.83;6.10;;;13.50;96.30;;;;;;5012412;28;20497;-79
2021/09/03 19:13:34;;;;;;;12.83;5.60;;;13.50;96.30;;;;;;5017790;28;20183;-78
2021/09/03 19:16:01;;;;;;;10.10;7.30;;;13.50;96.30;;;;;;5018084;28;20177;-79
2021/09/03 19:18:27;;;;;;;9.17;6.67;;;13.40;96.30;;;;;;5000479;28;20660;-79
2021/09/03 19:20:53;;;;;;;9.47;7.33;;;13.40;96.30;;;;;;5014111;28;20490;-78
2021/09/03 19:23:19;;;;;;;10.80;7.50;;;13.30;96.30;;;;;;4998962;28;20204;-79
2021/09/03 19:25:45;;;;;;;9.40;7.00;;;13.30;96.30;;;;;;5022360;28;20443;-79
2021/09/03 19:28:11;;;;;;;8.53;6.20;;;13.30;96.30;;;;;;5037173;28;20406;-80
2021/09/03 19:30:37;;;;;;;11.40;7.60;;;13.10;96.30;;;;;;5006686;28;20598;-79
2021/09/03 19:33:02;;;;;;;8.00;6.80;;;13.00;96.30;;;;;;5021647;28;20427;-79
2021/09/03 19:35:28;;;;;;;11.97;6.20;;;12.90;96.30;;;;;;5016225;28;20667;-78
2021/09/03 19:37:56;;;;;;;10.23;7.07;;;12.90;96.30;;;;;;4997883;28;20539;-78
2021/09/03 19:40:22;;;;;;;7.00;5.83;;;12.70;96.30;;;;;;5015251;28;20410;-78
2021/09/03 19:42:47;;;;;;;7.83;6.67;;;12.60;96.30;;;;;;5014264;28;20451;-78
2021/09/03 19:45:13;;;;;;;12.80;8.87;;;12.50;96.30;;;;;;4999025;28;20633;-77
2021/09/03 19:47:39;;;;;;;8.10;7.30;;;12.50;96.30;;;;;;4999084;28;20239;-78
2021/09/03 19:50:07;;;;;;;11.67;7.73;;;12.50;96.30;;;;;;4998022;28;20176;-78
2021/09/03 19:52:33;;;;;;;9.30;7.60;;;12.40;96.30;;;;;;5015229;28;20301;-80
2021/09/03 19:54:58;;;;;;;10.03;8.53;;;12.30;96.30;;;;;;5016000;28;20562;-78
2021/09/03 19:57:24;;;;;;;9.30;8.33;;;12.30;96.30;;;;;;4999214;28;20177;-80
2021/09/03 19:59:49;;;;;;;26.33;8.63;;;12.30;96.30;;;;;;5016952;28;20180;-78
2021/09/03 20:02:15;;;;;;;10.63;7.87;;;12.30;96.30;;;;;;4996921;28;20291;-79
2021/09/03 20:04:41;;;;;;;8.93;7.77;;;12.20;96.30;;;;;;5007341;28;20194;-79
2021/09/03 20:07:06;;;;;;;11.30;8.83;;;12.20;96.30;;;;;;4995371;28;20197;-79
2021/09/03 20:09:32;;;;;;;8.93;8.03;;;12.20;96.30;;;;;;4995040;28;20256;-79
2021/09/03 20:11:57;;;;;;;10.80;8.67;;;12.10;96.30;;;;;;4977459;28;20198;-80
2021/09/03 20:14:23;;;;;;;11.60;8.10;;;12.10;96.30;;;;;;4977981;28;20680;-80
2021/09/03 20:16:49;;;;;;;9.97;8.37;;;12.10;96.30;;;;;;4995324;28;20185;-80
2021/09/03 20:19:15;;;;;;;9.27;8.30;;;12.00;96.30;;;;;;4978059;28;20194;-79
2021/09/03 20:21:41;;;;;;;8.87;7.97;;;12.00;96.30;;;;;;4993562;28;20498;-81
2021/09/03 20:24:07;;;;;;;14.53;7.87;;;11.90;96.30;;;;;;4996014;28;20177;-80
2021/09/03 20:26:33;;;;;;;10.03;8.60;;;11.90;96.30;;;;;;5007610;28;20256;-76
2021/09/03 20:28:58;;;;;;;12.83;9.00;;;11.90;96.30;;;;;;5013473;28;20185;-76
2021/09/03 20:31:24;;;;;;;11.00;7.60;;;11.90;96.30;;;;;;5013114;28;20205;-77
2021/09/03 20:33:50;;;;;;;12.77;9.00;;;11.90;96.30;;;;;;5015840;28;20326;-76
2021/09/03 20:36:15;;;;;;;9.60;8.13;;;11.80;96.30;;;;;;5014706;28;20199;-76
2021/09/03 20:38:41;;;;;;;8.33;7.47;;;11.80;96.30;;;;;;5012731;28;20176;-76
2021/09/03 20:48:45;;;;;;;10.83;8.47;;;11.70;96.30;;;;;;4935270;29;20569;-77
2021/09/03 20:51:13;;;;;;;10.90;9.77;;;11.60;96.30;;;;;;4940903;29;20923;-77
2021/09/03 20:53:38;;;;;;;9.80;8.50;;;11.50;96.30;;;;;;4953073;29;20188;-77
2021/09/03 20:56:04;;;;;;;12.77;8.60;;;11.60;96.30;;;;;;4955626;29;20414;-78
2021/09/03 20:58:29;;;;;;;9.43;8.40;;;11.50;96.30;;;;;;4938748;29;20583;-77
2021/09/03 21:00:55;;;;;;;11.03;8.83;;;11.40;96.30;;;;;;4938532;29;20627;-77
2021/09/03 21:03:20;;;;;;;12.60;9.40;;;11.50;96.30;;;;;;4955611;29;20203;-77
2021/09/03 21:05:46;;;;;;;11.67;9.47;;;11.40;96.30;;;;;;4955822;29;20182;-79
2021/09/03 21:08:11;;;;;;;13.80;8.73;;;11.40;96.30;;;;;;4955705;29;20209;-77
2021/09/03 21:10:39;;;;;;;9.87;8.17;;;11.30;96.30;;;;;;4938667;28;20195;-77
2021/09/03 21:13:09;;;;;;;12.17;9.90;;;11.20;96.30;;;;;;4955603;29;20182;-77
2021/09/03 21:15:39;;;;;;;10.57;9.13;;;11.10;96.30;;;;;;4955774;29;20929;-77
2021/09/03 21:18:06;;;;;;;11.63;9.60;;;11.10;96.30;;;;;;4938443;29;20509;-78
2021/09/03 21:20:31;;;;;;;10.90;8.63;;;11.00;96.30;;;;;;4938441;28;20458;-76
2021/09/03 21:22:57;;;;;;;13.07;8.40;;;11.00;96.30;;;;;;4937556;29;20490;-76
2021/09/03 21:25:23;;;;;;;10.20;9.00;;;11.00;96.30;;;;;;4955291;29;20665;-77
2021/09/03 21:27:50;;;;;;;9.93;8.77;;;11.00;96.30;;;;;;4938700;29;20195;-77
2021/09/03 21:30:15;;;;;;;14.37;8.60;;;10.90;96.30;;;;;;4938043;28;20427;-76
2021/09/03 21:32:41;;;;;;;9.27;7.77;;;10.80;96.30;;;;;;4954802;29;20179;-78
2021/09/03 21:35:06;;;;;;;8.20;7.37;;;10.70;96.30;;;;;;4955219;29;20648;-77